createdAt,value
2018-09-04T00:01:01.307Z,89.90
2018-09-04T00:03:29.677Z,89.90
2018-09-04T00:05:58.135Z,89.80
2018-09-04T00:08:26.559Z,89.80
2018-09-04T00:10:54.926Z,90.10
2018-09-04T00:13:23.337Z,90.00
2018-09-04T00:15:51.732Z,90.10
2018-09-04T00:18:20.095Z,90.10
2018-09-04T00:20:48.463Z,90.20
2018-09-04T00:23:16.867Z,90.10
2018-09-04T00:25:45.217Z,90.10
2018-09-04T00:28:13.596Z,90.20
2018-09-04T00:30:41.968Z,90.10
2018-09-04T00:33:10.420Z,90.20
2018-09-04T00:35:38.834Z,90.20
2018-09-04T00:38:07.241Z,90.30
2018-09-04T00:40:35.590Z,90.20
2018-09-04T00:43:04.081Z,90.20
2018-09-04T00:45:32.602Z,90.20
2018-09-04T00:48:00.977Z,90.20
2018-09-04T00:50:29.319Z,90.20
2018-09-04T00:52:57.711Z,90.50
2018-09-04T00:55:26.123Z,90.10
2018-09-04T00:57:54.428Z,90.20
2018-09-04T01:00:25.088Z,90.10
2018-09-04T01:02:54.112Z,90.30
2018-09-04T01:05:22.747Z,90.30
2018-09-04T01:07:51.167Z,90.30
2018-09-04T01:10:19.774Z,90.50
2018-09-04T01:12:48.124Z,90.60
2018-09-04T01:15:16.484Z,90.70
2018-09-04T01:17:44.894Z,90.70
2018-09-04T01:20:13.336Z,90.70
2018-09-04T01:22:41.866Z,90.70
2018-09-04T01:25:10.299Z,90.60
2018-09-04T01:27:38.713Z,90.60
2018-09-04T01:30:07.253Z,90.70
2018-09-04T01:32:35.684Z,90.80
2018-09-04T01:35:04.048Z,90.70
2018-09-04T01:37:32.401Z,90.70
2018-09-04T01:40:00.819Z,90.70
2018-09-04T01:42:29.195Z,90.60
2018-09-04T01:44:57.593Z,90.50
2018-09-04T01:47:25.948Z,90.60
2018-09-04T01:49:54.278Z,90.70
2018-09-04T01:52:22.839Z,90.70
2018-09-04T01:54:52.161Z,90.60
2018-09-04T01:57:20.601Z,90.90
2018-09-04T01:59:48.951Z,90.60
2018-09-04T02:02:17.324Z,90.70
2018-09-04T02:04:45.726Z,90.70
2018-09-04T02:07:14.171Z,90.70
2018-09-04T02:09:42.593Z,90.70
2018-09-04T02:12:11.133Z,90.70
2018-09-04T02:14:40.553Z,90.70
2018-09-04T02:17:08.962Z,90.90
2018-09-04T02:19:37.305Z,90.70
2018-09-04T02:22:05.751Z,90.80
2018-09-04T02:24:34.191Z,90.80
2018-09-04T02:27:02.532Z,90.80
2018-09-04T02:29:30.940Z,90.80
2018-09-04T02:31:59.328Z,90.80
2018-09-04T02:34:27.699Z,90.90
2018-09-04T02:36:56.180Z,90.90
2018-09-04T02:39:24.662Z,90.80
2018-09-04T02:41:53.000Z,90.80
2018-09-04T02:44:21.473Z,90.90
2018-09-04T02:46:49.863Z,90.80
2018-09-04T02:49:18.304Z,90.90
2018-09-04T02:51:46.652Z,90.80
2018-09-04T02:54:15.093Z,90.80
2018-09-04T02:56:43.487Z,90.80
2018-09-04T02:59:11.989Z,91.00
2018-09-04T03:01:40.370Z,90.90
2018-09-04T03:04:08.766Z,91.00
2018-09-04T03:06:37.104Z,91.10
2018-09-04T03:09:06.265Z,90.90
2018-09-04T03:11:34.613Z,90.90
2018-09-04T03:17:21.876Z,90.90
2018-09-04T03:19:50.201Z,91.00
2018-09-04T03:22:18.595Z,91.00
2018-09-04T03:24:46.978Z,91.10
2018-09-04T03:27:15.346Z,91.10
2018-09-04T03:29:43.726Z,91.10
2018-09-04T03:32:12.192Z,91.10
2018-09-04T03:34:40.572Z,91.10
2018-09-04T03:37:09.318Z,91.10
2018-09-04T03:39:37.659Z,91.10
2018-09-04T03:42:06.097Z,91.00
2018-09-04T03:44:34.432Z,91.20
2018-09-04T03:47:02.812Z,91.10
2018-09-04T03:49:31.106Z,91.10
2018-09-04T03:51:59.502Z,91.10
2018-09-04T03:54:27.809Z,91.20
2018-09-04T03:56:56.218Z,91.20
2018-09-04T03:59:24.633Z,91.20
2018-09-04T04:01:52.954Z,91.20
2018-09-04T04:04:21.331Z,91.20
2018-09-04T04:06:49.724Z,91.20
2018-09-04T04:09:18.096Z,91.20
2018-09-04T04:11:46.539Z,91.20
2018-09-04T04:14:14.868Z,91.20
2018-09-04T04:16:43.236Z,91.20
2018-09-04T04:19:11.632Z,91.30
2018-09-04T04:21:40.052Z,91.20
2018-09-04T04:24:08.356Z,91.20
2018-09-04T04:26:36.787Z,91.30
2018-09-04T04:29:05.295Z,91.30
2018-09-04T04:31:33.635Z,91.40
2018-09-04T04:34:02.092Z,91.20
2018-09-04T04:36:30.474Z,91.40
2018-09-04T04:38:58.862Z,91.30
2018-09-04T04:41:27.273Z,91.30
2018-09-04T04:43:55.632Z,91.30
2018-09-04T04:46:24.132Z,91.30
2018-09-04T04:48:52.504Z,91.30
2018-09-04T04:51:20.850Z,91.30
2018-09-04T04:53:49.256Z,91.40
2018-09-04T04:56:17.705Z,91.40
2018-09-04T04:58:46.084Z,91.30
2018-09-04T05:01:14.553Z,91.30
2018-09-04T05:03:42.837Z,91.20
2018-09-04T05:06:11.240Z,91.20
2018-09-04T05:08:39.636Z,91.20
2018-09-04T05:11:07.996Z,91.10
2018-09-04T05:13:36.351Z,91.30
2018-09-04T05:16:05.092Z,91.40
2018-09-04T05:18:33.453Z,91.30
2018-09-04T05:21:01.939Z,91.40
2018-09-04T05:23:30.280Z,91.30
2018-09-04T05:25:58.654Z,91.30
2018-09-04T05:28:27.024Z,91.30
2018-09-04T05:30:55.439Z,91.30
2018-09-04T05:33:29.073Z,91.30
2018-09-04T05:35:58.705Z,91.30
2018-09-04T05:38:27.331Z,91.20
2018-09-04T05:40:55.714Z,91.20
2018-09-04T05:43:33.675Z,91.20
2018-09-04T05:46:05.230Z,91.10
2018-09-04T05:48:33.563Z,90.90
2018-09-04T05:51:01.931Z,90.90
2018-09-04T05:53:30.356Z,90.90
2018-09-04T05:55:58.710Z,90.90
2018-09-04T05:58:27.035Z,90.90
2018-09-04T06:00:57.857Z,90.80
2018-09-04T06:03:26.155Z,90.60
2018-09-04T06:05:54.536Z,90.90
2018-09-04T06:08:23.064Z,90.70
2018-09-04T06:10:51.640Z,90.70
2018-09-04T06:13:19.969Z,90.80
2018-09-04T06:15:48.256Z,90.80
2018-09-04T06:18:16.641Z,90.80
2018-09-04T06:20:45.087Z,90.80
2018-09-04T06:23:13.441Z,90.80
2018-09-04T06:25:41.908Z,90.70
2018-09-04T06:28:10.527Z,90.70
2018-09-04T06:30:38.867Z,90.70
2018-09-04T06:33:07.239Z,90.70
2018-09-04T06:35:35.622Z,90.70
2018-09-04T06:38:04.094Z,90.70
2018-09-04T06:40:32.460Z,90.70
2018-09-04T06:43:00.989Z,90.70
2018-09-04T06:45:29.364Z,90.70
2018-09-04T06:47:58.735Z,90.70
2018-09-04T06:50:27.158Z,90.70
2018-09-04T06:52:55.496Z,90.60
2018-09-04T06:55:23.986Z,90.50
2018-09-04T06:57:52.481Z,90.60
2018-09-04T07:00:20.713Z,90.50
2018-09-04T07:02:49.141Z,90.60
2018-09-04T07:05:17.469Z,90.60
2018-09-04T07:07:45.881Z,90.60
2018-09-04T07:10:14.264Z,90.60
2018-09-04T07:12:42.562Z,90.70
2018-09-04T07:15:10.973Z,90.60
2018-09-04T07:17:39.322Z,90.60
2018-09-04T07:20:07.681Z,90.60
2018-09-04T07:22:36.035Z,90.50
2018-09-04T07:25:04.424Z,90.60
2018-09-04T07:27:32.817Z,90.60
2018-09-04T07:30:01.217Z,90.60
2018-09-04T07:32:29.537Z,90.60
2018-09-04T07:34:57.940Z,90.70
2018-09-04T07:37:26.309Z,90.70
2018-09-04T07:39:55.041Z,90.70
2018-09-04T07:42:23.448Z,90.90
2018-09-04T07:44:51.772Z,90.90
2018-09-04T07:47:20.176Z,90.80
2018-09-04T07:49:48.640Z,90.70
2018-09-04T07:52:17.011Z,90.80
2018-09-04T07:54:45.424Z,90.80
2018-09-04T07:57:13.880Z,90.80
2018-09-04T07:59:42.264Z,90.90
2018-09-04T08:02:10.664Z,90.70
2018-09-04T08:04:39.011Z,90.80
2018-09-04T08:07:07.565Z,90.90
2018-09-04T08:09:36.317Z,90.90
2018-09-04T08:12:04.718Z,90.90
2018-09-04T08:14:33.258Z,90.70
2018-09-04T08:17:01.672Z,90.80
2018-09-04T08:19:30.075Z,90.80
2018-09-04T08:21:58.477Z,90.70
2018-09-04T08:24:26.981Z,90.70
2018-09-04T08:26:55.367Z,90.50
2018-09-04T08:29:23.838Z,90.50
2018-09-04T08:31:52.208Z,90.40
2018-09-04T08:34:20.660Z,90.40
2018-09-04T08:36:49.099Z,90.60
2018-09-04T08:39:17.553Z,90.30
2018-09-04T08:41:46.090Z,90.20
2018-09-04T08:44:14.493Z,89.30
2018-09-04T08:46:42.914Z,88.80
2018-09-04T08:49:11.319Z,88.60
2018-09-04T08:51:39.709Z,88.40
2018-09-04T08:54:08.173Z,88.50
2018-09-04T08:56:36.550Z,88.40
2018-09-04T08:59:05.037Z,88.40
2018-09-04T09:01:33.474Z,88.40
2018-09-04T09:04:01.905Z,88.10
2018-09-04T09:06:30.309Z,87.40
2018-09-04T09:08:58.789Z,87.10
2018-09-04T09:11:27.289Z,86.20
2018-09-04T09:13:55.779Z,86.00
2018-09-04T09:16:24.312Z,86.30
2018-09-04T09:18:52.793Z,86.00
2018-09-04T09:21:21.204Z,85.50
2018-09-04T09:23:49.767Z,85.70
2018-09-04T09:26:18.315Z,85.80
2018-09-04T09:28:46.740Z,85.90
2018-09-04T09:31:15.186Z,86.10
2018-09-04T09:33:43.678Z,85.50
2018-09-04T09:36:12.109Z,85.60
2018-09-04T09:38:40.465Z,84.70
2018-09-04T09:41:08.895Z,85.10
2018-09-04T09:43:37.462Z,85.00
2018-09-04T09:46:05.855Z,84.60
2018-09-04T09:48:40.226Z,84.30
2018-09-04T09:51:09.257Z,84.30
2018-09-04T09:53:37.985Z,83.90
2018-09-04T09:56:06.418Z,84.00
2018-09-04T09:58:34.809Z,82.70
2018-09-04T10:01:09.615Z,82.40
2018-09-04T10:03:43.464Z,82.50
2018-09-04T10:06:11.983Z,81.40
2018-09-04T10:08:40.365Z,80.90
2018-09-04T10:11:08.813Z,80.30
2018-09-04T10:13:37.052Z,79.00
2018-09-04T10:16:05.732Z,77.00
2018-09-04T10:18:34.054Z,77.00
2018-09-04T10:21:02.545Z,77.30
2018-09-04T10:23:31.059Z,76.60
2018-09-04T10:25:59.563Z,77.60
2018-09-04T10:28:27.937Z,77.40
2018-09-04T10:30:56.373Z,75.10
2018-09-04T10:33:24.839Z,75.10
2018-09-04T10:35:53.189Z,73.20
2018-09-04T10:38:24.643Z,72.50
2018-09-04T10:40:54.599Z,72.40
2018-09-04T10:43:25.902Z,73.00
2018-09-04T10:46:03.533Z,72.70
2018-09-04T10:48:31.874Z,73.60
2018-09-04T10:51:00.601Z,74.90
2018-09-04T10:53:28.945Z,72.50
2018-09-04T10:55:57.487Z,72.80
2018-09-04T10:58:25.980Z,72.60
2018-09-04T11:00:54.654Z,74.20
2018-09-04T11:03:22.924Z,72.90
2018-09-04T11:05:51.348Z,74.10
2018-09-04T11:08:20.043Z,74.00
2018-09-04T11:10:48.781Z,73.00
2018-09-04T11:13:17.243Z,72.50
2018-09-04T11:15:45.625Z,74.80
2018-09-04T11:18:13.951Z,71.10
2018-09-04T11:20:42.356Z,71.40
2018-09-04T11:23:10.758Z,70.80
2018-09-04T11:25:39.252Z,68.20
2018-09-04T11:28:07.728Z,69.80
2018-09-04T11:30:36.177Z,71.10
2018-09-04T11:33:04.589Z,70.80
2018-09-04T11:35:32.923Z,70.90
2018-09-04T11:38:01.369Z,70.80
2018-09-04T11:40:29.833Z,70.10
2018-09-04T11:42:58.213Z,70.80
2018-09-04T11:45:26.628Z,70.00
2018-09-04T11:47:55.000Z,70.60
2018-09-04T11:50:23.322Z,68.70
2018-09-04T11:52:51.660Z,65.80
2018-09-04T11:55:19.975Z,65.80
2018-09-04T11:57:48.369Z,66.80
2018-09-04T12:00:19.709Z,66.40
2018-09-04T12:02:48.036Z,67.90
2018-09-04T12:05:16.408Z,66.40
2018-09-04T12:07:44.727Z,68.10
2018-09-04T12:10:13.151Z,67.80
2018-09-04T12:12:41.675Z,67.30
2018-09-04T12:15:09.806Z,67.90
2018-09-04T12:17:38.112Z,67.80
2018-09-04T12:20:48.886Z,68.10
2018-09-04T12:23:17.231Z,67.90
2018-09-04T12:25:46.804Z,69.20
2018-09-04T12:28:15.121Z,69.00
2018-09-04T12:30:43.564Z,67.60
2018-09-04T12:33:11.885Z,66.90
2018-09-04T12:35:40.227Z,66.90
2018-09-04T12:38:11.915Z,64.50
2018-09-04T12:40:40.363Z,65.10
2018-09-04T12:43:08.729Z,63.20
2018-09-04T12:45:42.433Z,60.70
2018-09-04T12:48:11.784Z,63.90
2018-09-04T12:50:40.245Z,64.70
2018-09-04T12:53:08.985Z,63.40
2018-09-04T12:55:37.405Z,62.40
2018-09-04T12:58:05.902Z,63.40
2018-09-04T13:00:39.265Z,62.90
2018-09-04T13:03:07.702Z,64.80
2018-09-04T13:05:36.234Z,64.70
2018-09-04T13:08:04.601Z,63.80
2018-09-04T13:10:32.948Z,61.90
2018-09-04T13:13:01.278Z,60.30
2018-09-04T13:15:45.117Z,59.00
2018-09-04T13:18:13.555Z,60.80
2018-09-04T13:20:41.931Z,60.40
2018-09-04T13:23:10.333Z,60.80
2018-09-04T13:25:38.787Z,60.90
2018-09-04T13:28:07.918Z,60.40
2018-09-04T13:30:36.464Z,61.00
2018-09-04T13:33:04.816Z,62.30
2018-09-04T13:35:33.267Z,63.30
2018-09-04T13:38:01.581Z,63.60
2018-09-04T13:40:29.895Z,61.90
2018-09-04T13:42:58.314Z,61.60
2018-09-04T13:45:27.504Z,62.70
2018-09-04T13:47:56.019Z,62.60
2018-09-04T13:50:24.571Z,62.20
2018-09-04T13:52:52.932Z,60.70
2018-09-04T13:55:21.228Z,60.60
2018-09-04T13:57:49.543Z,60.00
2018-09-04T14:00:18.709Z,59.00
2018-09-04T14:02:47.489Z,59.20
2018-09-04T14:05:15.849Z,59.50
2018-09-04T14:07:44.172Z,60.30
2018-09-04T14:10:12.637Z,59.60
2018-09-04T14:12:40.998Z,59.50
2018-09-04T14:15:09.792Z,59.30
2018-09-04T14:17:38.207Z,59.70
2018-09-04T14:20:07.021Z,58.60
2018-09-04T14:22:35.372Z,58.90
2018-09-04T14:25:03.660Z,59.70
2018-09-04T14:27:31.955Z,58.80
2018-09-04T14:30:16.044Z,58.50
2018-09-04T14:32:28.650Z,58.30
2018-09-04T14:34:56.992Z,58.30
2018-09-04T14:37:25.375Z,59.10
2018-09-04T14:39:55.588Z,59.70
2018-09-04T14:42:22.162Z,59.10
2018-09-04T14:44:50.451Z,58.30
2018-09-04T14:47:18.926Z,59.00
2018-09-04T14:49:47.349Z,59.30
2018-09-04T14:52:15.732Z,59.30
2018-09-04T14:54:44.069Z,59.30
2018-09-04T14:57:12.481Z,59.10
2018-09-04T14:59:40.785Z,59.20
2018-09-04T15:02:09.174Z,58.90
2018-09-04T15:04:37.457Z,59.50
2018-09-04T15:07:05.858Z,58.50
2018-09-04T15:09:34.140Z,59.00
2018-09-04T15:12:02.575Z,59.00
2018-09-04T15:14:30.862Z,58.60
2018-09-04T15:17:00.157Z,59.20
2018-09-04T15:19:28.695Z,59.70
2018-09-04T15:21:57.579Z,58.40
2018-09-04T15:24:25.880Z,58.30
2018-09-04T15:26:54.208Z,58.60
2018-09-04T15:29:22.600Z,58.60
2018-09-04T15:31:50.945Z,58.40
2018-09-04T15:34:19.324Z,58.70
2018-09-04T15:36:47.644Z,58.50
2018-09-04T15:39:16.514Z,58.60
2018-09-04T15:41:44.864Z,58.40
2018-09-04T15:44:13.267Z,58.60
2018-09-04T15:46:41.560Z,58.60
2018-09-04T15:49:15.367Z,58.90
2018-09-04T15:51:43.723Z,59.00
2018-09-04T15:54:12.140Z,59.00
2018-09-04T15:56:40.507Z,58.70
2018-09-04T15:59:08.793Z,58.80
2018-09-04T16:01:37.085Z,59.30
2018-09-04T16:04:05.404Z,58.90
2018-09-04T16:06:33.821Z,59.20
2018-09-04T16:09:02.146Z,59.50
2018-09-04T16:11:30.450Z,59.60
2018-09-04T16:13:58.759Z,59.10
2018-09-04T16:16:27.067Z,58.90
2018-09-04T16:18:55.462Z,58.80
2018-09-04T16:21:23.847Z,59.20
2018-09-04T16:23:52.481Z,59.50
2018-09-04T16:26:20.987Z,59.70
2018-09-04T16:28:50.349Z,59.70
2018-09-04T16:31:18.723Z,60.30
2018-09-04T16:33:47.045Z,61.10
2018-09-04T16:36:15.515Z,61.90
2018-09-04T16:38:44.083Z,61.60
2018-09-04T16:41:14.201Z,61.60
2018-09-04T16:43:42.763Z,60.70
2018-09-04T16:46:11.235Z,62.00
2018-09-04T16:48:39.708Z,61.40
2018-09-04T16:51:08.064Z,61.30
2018-09-04T16:53:37.127Z,61.60
2018-09-04T16:56:05.590Z,61.80
2018-09-04T16:58:33.985Z,62.40
2018-09-04T17:01:02.543Z,61.90
2018-09-04T17:03:30.997Z,62.50
2018-09-04T17:05:59.402Z,62.80
2018-09-04T17:08:27.834Z,62.70
2018-09-04T17:10:56.272Z,62.60
2018-09-04T17:13:24.658Z,63.00
2018-09-04T17:16:29.597Z,63.40
2018-09-04T17:18:57.981Z,63.50
2018-09-04T17:21:26.304Z,62.90
2018-09-04T17:23:54.872Z,64.30
2018-09-04T17:26:23.290Z,65.10
2018-09-04T17:28:51.646Z,65.70
2018-09-04T17:31:20.072Z,66.20
2018-09-04T17:33:48.796Z,66.50
2018-09-04T17:36:17.302Z,67.00
2018-09-04T17:38:47.110Z,67.10
2018-09-04T17:41:15.420Z,67.30
2018-09-04T17:43:43.813Z,67.40
2018-09-04T17:46:12.097Z,67.90
2018-09-04T17:48:40.434Z,68.00
2018-09-04T17:51:08.738Z,67.90
2018-09-04T17:53:37.042Z,68.20
2018-09-04T17:56:05.685Z,68.20
2018-09-04T17:58:34.047Z,68.20
2018-09-04T18:01:02.833Z,68.50
2018-09-04T18:03:31.279Z,68.10
2018-09-04T18:05:59.724Z,68.60
2018-09-04T18:08:28.088Z,69.20
2018-09-04T18:10:56.814Z,69.90
2018-09-04T18:13:25.279Z,70.10
2018-09-04T18:15:53.614Z,70.40
2018-09-04T18:18:22.165Z,70.60
2018-09-04T18:20:50.534Z,70.70
2018-09-04T18:23:18.871Z,70.80
2018-09-04T18:25:48.780Z,70.50
2018-09-04T18:28:17.161Z,70.60
2018-09-04T18:30:45.543Z,70.70
2018-09-04T18:33:13.952Z,71.10
2018-09-04T18:35:42.285Z,71.40
2018-09-04T18:38:10.761Z,71.60
2018-09-04T18:40:39.227Z,71.80
2018-09-04T18:43:07.600Z,71.90
2018-09-04T18:45:46.510Z,72.10
2018-09-04T18:48:14.940Z,72.60
2018-09-04T18:50:43.517Z,73.20
2018-09-04T18:53:11.904Z,73.00
2018-09-04T18:55:40.284Z,72.90
2018-09-04T18:58:09.086Z,73.00
2018-09-04T19:00:39.036Z,73.00
2018-09-04T19:03:07.473Z,73.40
2018-09-04T19:05:35.897Z,73.30
2018-09-04T19:08:04.270Z,73.20
2018-09-04T19:10:33.152Z,73.30
2018-09-04T19:13:02.170Z,73.30
2018-09-04T19:15:30.893Z,73.70
2018-09-04T19:17:59.241Z,73.60
2018-09-04T19:20:27.541Z,73.70
2018-09-04T19:22:55.928Z,74.10
2018-09-04T19:25:25.388Z,74.50
2018-09-04T19:27:53.832Z,74.60
2018-09-04T19:30:22.256Z,75.00
2018-09-04T19:32:50.601Z,74.40
2018-09-04T19:35:18.991Z,74.70
2018-09-04T19:37:47.418Z,74.30
2018-09-04T19:40:15.830Z,74.20
2018-09-04T19:42:44.891Z,74.50
2018-09-04T19:45:15.260Z,74.70
2018-09-04T19:47:43.649Z,74.80
2018-09-04T19:50:13.319Z,74.90
2018-09-04T19:52:41.794Z,75.40
2018-09-04T19:55:12.663Z,74.90
2018-09-04T19:57:41.020Z,75.00
2018-09-04T20:00:11.047Z,74.90
2018-09-04T20:02:39.509Z,75.00
2018-09-04T20:05:08.547Z,74.80
2018-09-04T20:07:36.956Z,75.20
2018-09-04T20:10:05.922Z,75.20
2018-09-04T20:12:34.377Z,75.20
2018-09-04T20:15:02.935Z,75.10
2018-09-04T20:17:31.324Z,75.30
2018-09-04T20:19:59.772Z,75.60
2018-09-04T20:22:28.254Z,75.60
2018-09-04T20:24:57.660Z,75.20
2018-09-04T20:27:26.144Z,75.60
2018-09-04T20:29:55.572Z,75.50
2018-09-04T20:32:24.569Z,75.60
2018-09-04T20:34:54.245Z,75.60
2018-09-04T20:37:22.742Z,75.90
2018-09-04T20:39:51.267Z,75.90
2018-09-04T20:42:19.724Z,76.00
2018-09-04T20:44:48.311Z,76.20
2018-09-04T20:47:16.706Z,76.40
2018-09-04T20:49:46.124Z,76.50
2018-09-04T20:52:14.673Z,76.90
2018-09-04T20:54:43.114Z,76.80
2018-09-04T20:57:31.610Z,76.80
2018-09-04T21:00:17.133Z,77.60
2018-09-04T21:02:59.079Z,77.20
2018-09-04T21:05:39.741Z,77.30
2018-09-04T21:08:16.400Z,77.40
2018-09-04T21:10:45.258Z,77.20
2018-09-04T21:13:14.304Z,76.90
2018-09-04T21:15:42.746Z,77.30
2018-09-04T21:18:11.297Z,77.40
2018-09-04T21:20:39.719Z,77.40
2018-09-04T21:23:10.693Z,77.30
2018-09-04T21:25:39.128Z,77.10
2018-09-04T21:28:07.484Z,77.30
2018-09-04T21:30:35.851Z,77.00
2018-09-04T21:33:04.315Z,77.30
2018-09-04T21:35:32.725Z,77.30
2018-09-04T21:38:01.112Z,77.30
2018-09-04T21:40:29.468Z,77.60
2018-09-04T21:42:57.896Z,77.80
2018-09-04T21:45:26.409Z,77.80
2018-09-04T21:47:54.900Z,78.20
2018-09-04T21:50:24.381Z,77.70
2018-09-04T21:52:52.841Z,77.90
2018-09-04T21:55:21.302Z,77.80
2018-09-04T21:57:49.682Z,78.10
2018-09-04T22:00:23.543Z,77.60
2018-09-04T22:02:51.957Z,77.50
2018-09-04T22:05:20.397Z,78.00
2018-09-04T22:07:49.103Z,78.40
2018-09-04T22:10:17.512Z,78.60
2018-09-04T22:12:45.996Z,78.60
2018-09-04T22:15:14.514Z,78.50
2018-09-04T22:17:42.956Z,78.20
2018-09-04T22:20:11.665Z,78.20
2018-09-04T22:22:40.200Z,78.40
2018-09-04T22:25:08.600Z,78.50
2018-09-04T22:27:36.944Z,78.30
2018-09-04T22:30:05.436Z,78.40
2018-09-04T22:32:33.853Z,78.40
2018-09-04T22:35:02.230Z,78.80
2018-09-04T22:37:30.671Z,78.30
2018-09-04T22:39:59.112Z,78.70
2018-09-04T22:42:27.620Z,78.60
2018-09-04T22:44:56.019Z,78.70
2018-09-04T22:47:24.519Z,79.40
2018-09-04T22:49:58.271Z,78.50
2018-09-04T22:52:29.501Z,78.30
2018-09-04T22:55:01.048Z,78.50
2018-09-04T22:57:29.595Z,78.80
2018-09-04T22:59:58.023Z,78.70
2018-09-04T23:02:26.685Z,78.70
2018-09-04T23:04:55.199Z,78.90
2018-09-04T23:07:23.702Z,79.10
2018-09-04T23:09:52.227Z,79.40
2018-09-04T23:12:20.628Z,79.40
2018-09-04T23:14:48.960Z,79.10
2018-09-04T23:17:17.355Z,78.90
2018-09-04T23:19:45.807Z,79.10
2018-09-04T23:22:14.155Z,79.20
2018-09-04T23:24:42.495Z,79.40
2018-09-04T23:27:11.122Z,79.60
2018-09-04T23:29:39.464Z,79.50
2018-09-04T23:32:07.801Z,79.80
2018-09-04T23:34:36.837Z,79.70
2018-09-04T23:37:05.195Z,79.50
2018-09-04T23:39:33.637Z,79.50
2018-09-04T23:42:02.015Z,79.40
2018-09-04T23:44:30.353Z,79.30
2018-09-04T23:46:58.772Z,79.40
2018-09-04T23:49:27.985Z,79.60
2018-09-04T23:51:56.421Z,79.60
2018-09-04T23:54:24.820Z,79.60
2018-09-04T23:56:53.148Z,79.90
2018-09-04T23:59:21.520Z,79.90
